Nearby METAR Reports

 

EGKA - Shoreham-By-Sea, United Kingdom
Distance from station: SW 9mi, 14km
Updated: Tue, 11-Dec-2018 7:50pm GMT
NOT Current
Partly Cloudy
Partly Cloudy
 Wind from SSE
Wind: SSE 10 mph , 17 km/h
Temperature: 9°C
Wind Chill: 7°C
Dew Point: 6°C
Humidity: 82%
Barometer: 1022 hPa
Clouds: Partly Cloudy
Visibility: 6 miles , 10 km
Cloud details: Partly Cloudy 1067 m
2018/12/11 19:50 EGKA 111950Z 15009KT 9999 SCT035 09/06 Q1022
EGKK - London/Gatwick A, United Kingdom
Distance from station: N 14mi, 22km
Updated: Wed, 12-Dec-2018 6:20am GMT
Mostly Cloudy
Mostly Cloudy
 Wind from E
Wind: E 7 mph , 11 km/h
Temperature: 7°C
Wind Chill: 5°C
Dew Point: 6°C
Humidity: 93%
Barometer: 1022 hPa
Clouds: Mostly Cloudy
Visibility: 6 miles , 9 km
Cloud details: Mostly Cloudy 1036 m
2018/12/12 06:20 EGKK 120620Z 09006KT 9000 BKN034 07/06 Q1022
 
EGKB - Biggin Hill, United Kingdom
Distance from station: NNE 28mi, 44km
Updated: Wed, 12-Dec-2018 6:20am GMT
Light drizzle, Partly cloudy
Light drizzle, Partly cloudy
 Wind from ESE
Wind: ESE 8 mph , 13 km/h
Temperature: 6°C
Wind Chill: 3°C
Dew Point: 5°C
Humidity: 93%
Barometer: 1022 hPa
Summary: Light Drizzle
Clouds: Partly Cloudy
Visibility: 5 miles , 8 km
Cloud details: Partly Cloudy 183 m
Partly Cloudy 762 m
2018/12/12 06:20 EGKB 120620Z 11007KT 080V140 8000 -DZ SCT006 SCT025 06/05 Q1022
EGLF - Farnborough, United Kingdom
Distance from station: NW 35mi, 56km
Updated: Tue, 11-Dec-2018 7:50pm GMT
NOT Current
Partly Cloudy
Partly Cloudy
 Wind from ESE
Wind: ESE 5 mph , 7 km/h
Temperature: 5°C
Wind Chill: 3°C
Dew Point: 4°C
Humidity: 93%
Barometer: 1022 hPa
Clouds: Partly Cloudy
Visibility: 6 miles , 9 km
2018/12/11 19:50 EGLF 111950Z 12004KT 9000 NSC 05/04 Q1022
 
EGMD - Lydd Airport, United Kingdom
Distance from station: E 48mi, 77km
Updated: Wed, 12-Dec-2018 6:20am GMT
Overcast
Overcast
 Wind from SSE
Wind: SSE 13 mph , 20 km/h
Temperature: 6°C
Wind Chill: 2°C
Dew Point: 3°C
Humidity: 81%
Barometer: 1023 hPa
Clouds: Overcast
Visibility: 6 miles , 10 km
Cloud details: Overcast 1463 m
2018/12/12 06:20 EGMD 120620Z AUTO 16011KT 9999 OVC048/// 06/03 Q1023
EGHI - Southampton Wx C, United Kingdom
Distance from station: W 50mi, 82km
Updated: Wed, 12-Dec-2018 6:20am GMT
Few Clouds
Few Clouds
 Wind from SE
Wind: SE 6 mph , 9 km/h
Temperature: 8°C
Wind Chill: 6°C
Dew Point: 3°C
Humidity: 71%
Barometer: 1021 hPa
Clouds: Few Clouds
Visibility: 6 miles , 10 km
Cloud details: Few Clouds 914 m
2018/12/12 06:20 EGHI 120620Z 13005KT 100V170 9999 FEW030 08/03 Q1021

Metar display script from Saratoga-Weather.org